Time;durP1;ratioP1;P1;durP2;ratioP2;P2;SDS_P1;SDS_P2;PMS_P1;PMS_P2;Temp;Humidity;BMP_temperature;BMP_pressure;BME280_temperature;BME280_humidity;BME280_pressure;Samples;Min_cycle;Max_cycle;Signal;HPM_P1;HPM_P2
2022/05/27 00:01:19;;;;;;;45.75;12.48;;;;;;;-145.76;100.00;65039.31;4951053;28;20042;-73
2022/05/27 00:03:44;;;;;;;43.78;12.82;;;;;;;-145.76;100.00;65039.31;4942538;28;20030;-73
2022/05/27 00:06:10;;;;;;;46.35;11.88;;;;;;;-145.76;100.00;65039.31;4923765;28;20042;-73
2022/05/27 00:08:36;;;;;;;35.13;9.73;;;;;;;-145.76;100.00;65039.31;4942045;28;21245;-73
2022/05/27 00:11:03;;;;;;;38.72;9.80;;;;;;;-145.76;100.00;65039.31;4926785;28;20046;-73
2022/05/27 00:13:29;;;;;;;42.88;12.27;;;;;;;-145.76;100.00;65039.31;4926217;28;20150;-73
2022/05/27 00:15:55;;;;;;;43.00;12.90;;;;;;;-145.76;100.00;65039.31;4932580;28;20133;-72
2022/05/27 00:18:20;;;;;;;36.35;11.93;;;;;;;-145.76;100.00;65039.31;4945473;28;20104;-73
2022/05/27 00:20:47;;;;;;;35.75;11.60;;;;;;;-145.76;100.00;65039.31;4938763;28;20042;-73
2022/05/27 00:23:14;;;;;;;42.08;13.75;;;;;;;-145.76;100.00;65039.31;4926922;28;20056;-73
2022/05/27 00:25:40;;;;;;;49.30;15.20;;;;;;;-145.76;100.00;65039.31;4942047;28;20168;-73
2022/05/27 00:28:06;;;;;;;35.40;11.73;;;;;;;-145.76;100.00;65039.31;4928501;28;20046;-73
2022/05/27 00:30:31;;;;;;;32.80;10.57;;;;;;;-145.76;100.00;65039.31;4944711;28;20070;-73
2022/05/27 00:32:56;;;;;;;39.33;11.85;;;;;;;-145.76;100.00;65039.31;4927391;28;20526;-73
2022/05/27 00:35:22;;;;;;;50.78;16.50;;;;;;;-145.76;100.00;65039.31;4942731;28;20061;-73
2022/05/27 00:37:48;;;;;;;33.88;10.20;;;;;;;-145.76;100.00;65039.31;4910074;28;20057;-72
2022/05/27 00:40:14;;;;;;;38.50;9.35;;;;;;;-145.76;100.00;65039.31;4956496;28;20037;-73
2022/05/27 00:42:41;;;;;;;29.95;9.73;;;;;;;-145.76;100.00;65039.31;4944463;28;20030;-73
2022/05/27 00:45:08;;;;;;;40.40;11.98;;;;;;;-145.76;100.00;65039.31;4929607;28;24430;-73
2022/05/27 00:47:36;;;;;;;29.77;7.47;;;;;;;-145.76;100.00;65039.31;4961925;28;20048;-73
2022/05/27 00:50:05;;;;;;;24.38;5.82;;;;;;;-145.76;100.00;65039.31;4927077;28;20155;-73
2022/05/27 00:52:32;;;;;;;43.75;11.18;;;;;;;-145.76;100.00;65039.31;4954979;28;20056;-73
2022/05/27 00:55:00;;;;;;;37.50;10.68;;;;;;;-145.76;100.00;65039.31;4931808;28;20042;-73
2022/05/27 00:57:33;;;;;;;29.52;6.00;;;;;;;-145.76;100.00;65039.31;4947691;28;20244;-73
2022/05/27 01:00:08;;;;;;;26.38;6.15;;;;;;;-145.76;100.00;65039.31;4933275;28;20062;-73
2022/05/27 01:02:34;;;;;;;31.88;7.13;;;;;;;-145.76;100.00;65039.31;4947090;28;20038;-73
2022/05/27 01:05:02;;;;;;;26.98;6.30;;;;;;;-145.76;100.00;65039.31;4942636;28;20042;-73
2022/05/27 01:07:28;;;;;;;25.20;5.70;;;;;;;-145.76;100.00;65039.31;4934156;28;20124;-73
2022/05/27 01:09:54;;;;;;;35.20;6.63;;;;;;;-145.76;100.00;65039.31;4946134;28;20099;-73
2022/05/27 01:12:34;;;;;;;27.33;5.82;;;;;;;-145.76;100.00;65039.31;4928402;28;20037;-73
2022/05/27 01:15:20;;;;;;;26.77;5.68;;;;;;;-145.76;100.00;65039.31;4945692;28;20141;-73
2022/05/27 01:18:09;;;;;;;22.65;5.40;;;;;;;-145.76;100.00;65039.31;4928756;28;20201;-73
2022/05/27 01:21:09;;;;;;;29.83;5.47;;;;;;;-145.76;100.00;65039.31;4946567;28;20072;-73
2022/05/27 01:23:47;;;;;;;20.48;5.00;;;;;;;-145.76;100.00;65039.31;4929399;28;20046;-73
2022/05/27 01:26:34;;;;;;;31.42;5.55;;;;;;;-145.76;100.00;65039.31;4946583;28;20049;-73
2022/05/27 01:29:37;;;;;;;32.75;7.00;;;;;;;-145.76;100.00;65039.31;4928749;28;20046;-73
2022/05/27 01:32:16;;;;;;;29.03;7.27;;;;;;;-145.76;100.00;65039.31;4946635;28;20066;-73
2022/05/27 01:34:46;;;;;;;29.05;6.72;;;;;;;-145.76;100.00;65039.31;4928461;28;20073;-74
2022/05/27 01:37:29;;;;;;;31.15;5.90;;;;;;;-145.76;100.00;65039.31;4944073;28;20065;-73
2022/05/27 01:39:59;;;;;;;38.58;6.65;;;;;;;-145.76;100.00;65039.31;4925768;28;20044;-73
2022/05/27 01:42:29;;;;;;;32.72;6.10;;;;;;;-145.76;100.00;65039.31;4946123;28;20593;-73
2022/05/27 01:45:11;;;;;;;29.33;6.80;;;;;;;-145.76;100.00;65039.31;4928927;28;20162;-73
2022/05/27 01:47:47;;;;;;;29.98;6.63;;;;;;;-145.76;100.00;65039.31;4910789;28;20196;-73
2022/05/27 01:50:19;;;;;;;26.83;7.13;;;;;;;-145.76;100.00;65039.31;4928773;28;20529;-73
2022/05/27 01:52:53;;;;;;;26.23;6.95;;;;;;;-145.76;100.00;65039.31;4945486;28;22635;-73
2022/05/27 01:55:24;;;;;;;27.58;5.95;;;;;;;-145.76;100.00;65039.31;4929736;28;20141;-73
2022/05/27 01:58:04;;;;;;;33.78;6.18;;;;;;;-145.76;100.00;65039.31;4947315;28;20038;-73
2022/05/27 02:00:30;;;;;;;21.65;5.75;;;;;;;-145.76;100.00;65039.31;4926609;28;20585;-73
2022/05/27 02:03:09;;;;;;;22.92;4.75;;;;;;;-145.76;100.00;65039.31;4924452;28;20040;-72
2022/05/27 02:05:57;;;;;;;26.95;4.63;;;;;;;-145.76;100.00;65039.31;4942365;28;20133;-73
2022/05/27 02:08:27;;;;;;;18.80;4.47;;;;;;;-145.76;100.00;65039.31;4950066;28;20521;-73
2022/05/27 02:11:11;;;;;;;21.63;4.00;;;;;;;-145.76;100.00;65039.31;4940499;28;21222;-73
2022/05/27 02:13:40;;;;;;;27.52;5.68;;;;;;;-145.76;100.00;65039.31;4926649;28;20045;-73
2022/05/27 02:16:10;;;;;;;24.88;5.43;;;;;;;-145.76;100.00;65039.31;4955536;28;20504;-73
2022/05/27 02:18:45;;;;;;;20.88;4.40;;;;;;;-145.76;100.00;65039.31;4909713;28;20053;-73
2022/05/27 02:21:18;;;;;;;22.65;3.65;;;;;;;-145.76;100.00;65039.31;4945255;28;20049;-73
2022/05/27 02:23:50;;;;;;;19.40;3.92;;;;;;;-145.76;100.00;65039.31;4928825;28;20153;-73
2022/05/27 02:26:19;;;;;;;16.73;3.80;;;;;;;-145.76;100.00;65039.31;4925437;28;20535;-74
2022/05/27 02:28:53;;;;;;;18.92;3.78;;;;;;;-145.76;100.00;65039.31;4928260;28;20172;-73
2022/05/27 02:31:23;;;;;;;19.30;3.63;;;;;;;-145.76;100.00;65039.31;4944160;28;20044;-74
2022/05/27 02:37:03;;;;;;;19.92;3.90;;;;;;;-145.76;100.00;65039.31;4942282;28;21113;-73
2022/05/27 02:39:29;;;;;;;24.65;5.60;;;;;;;-145.76;100.00;65039.31;4932925;28;20061;-74
2022/05/27 02:42:26;;;;;;;18.38;4.32;;;;;;;-145.76;100.00;65039.31;4944924;28;20375;-73
2022/05/27 02:45:19;;;;;;;23.27;4.50;;;;;;;-145.76;100.00;65039.31;4926116;28;20061;-73
2022/05/27 02:47:56;;;;;;;28.23;5.10;;;;;;;-145.76;100.00;65039.31;4940217;28;20045;-73
2022/05/27 02:50:27;;;;;;;16.23;4.20;;;;;;;-145.76;100.00;65039.31;4909009;28;20030;-73
2022/05/27 02:53:01;;;;;;;30.48;5.13;;;;;;;-145.76;100.00;65039.31;4939154;28;20066;-73
2022/05/27 02:55:38;;;;;;;25.25;4.88;;;;;;;-145.76;100.00;65039.31;4943929;28;20096;-73
2022/05/27 02:58:04;;;;;;;18.67;4.75;;;;;;;-145.76;100.00;65039.31;4928432;28;20046;-73
2022/05/27 03:00:32;;;;;;;21.13;5.35;;;;;;;-145.76;100.00;65039.31;4945007;28;20034;-73
2022/05/27 03:02:59;;;;;;;17.75;3.88;;;;;;;-145.76;100.00;65039.31;4924167;28;20088;-73
2022/05/27 03:05:30;;;;;;;29.88;4.50;;;;;;;-145.76;100.00;65039.31;4942613;28;20042;-73
2022/05/27 03:08:19;;;;;;;24.85;4.85;;;;;;;-145.76;100.00;65039.31;4911154;28;20549;-74
2022/05/27 03:11:07;;;;;;;19.35;4.95;;;;;;;-145.76;100.00;65039.31;4941852;28;20068;-73
2022/05/27 03:13:50;;;;;;;27.17;4.70;;;;;;;-145.76;100.00;65039.31;4925481;28;20054;-73
2022/05/27 03:16:25;;;;;;;23.13;5.60;;;;;;;-145.76;100.00;65039.31;4944613;28;20053;-73
2022/05/27 03:19:16;;;;;;;20.42;5.13;;;;;;;-145.76;100.00;65039.31;4926280;28;20045;-73
2022/05/27 03:21:53;;;;;;;25.23;5.05;;;;;;;-145.76;100.00;65039.31;4940209;28;20157;-73
2022/05/27 03:24:42;;;;;;;25.02;4.65;;;;;;;-145.76;100.00;65039.31;4922816;28;20053;-73
2022/05/27 03:27:17;;;;;;;24.33;5.95;;;;;;;-145.76;100.00;65039.31;4943839;28;20612;-73
2022/05/27 03:29:50;;;;;;;27.17;6.50;;;;;;;-145.76;100.00;65039.31;4926374;28;20091;-73
2022/05/27 03:32:43;;;;;;;27.17;5.47;;;;;;;-145.76;100.00;65039.31;4944040;28;20482;-73
2022/05/27 03:35:08;;;;;;;23.08;5.32;;;;;;;-145.76;100.00;65039.31;4925852;28;20062;-73
2022/05/27 03:37:38;;;;;;;21.25;4.60;;;;;;;-145.76;100.00;65039.31;4945771;28;20297;-73
2022/05/27 03:40:04;;;;;;;24.13;5.30;;;;;;;-145.76;100.00;65039.31;4939375;28;20046;-72
2022/05/27 03:42:30;;;;;;;25.38;4.55;;;;;;;-145.76;100.00;65039.31;4941994;28;20076;-72
2022/05/27 03:44:58;;;;;;;25.00;4.85;;;;;;;-145.76;100.00;65039.31;4945660;28;20038;-72
2022/05/27 03:47:23;;;;;;;17.60;4.57;;;;;;;-145.76;100.00;65039.31;4928056;28;20037;-72
2022/05/27 03:49:48;;;;;;;19.83;4.50;;;;;;;-145.76;100.00;65039.31;4944051;28;20165;-73
2022/05/27 03:52:18;;;;;;;26.00;5.43;;;;;;;-145.76;100.00;65039.31;4929690;28;20080;-73
2022/05/27 03:54:44;;;;;;;23.90;4.65;;;;;;;-145.76;100.00;65039.31;4947602;28;20156;-73
2022/05/27 03:57:10;;;;;;;29.70;5.13;;;;;;;-145.76;100.00;65039.31;4931707;28;20034;-72
2022/05/27 03:59:35;;;;;;;21.17;5.25;;;;;;;-145.76;100.00;65039.31;4943434;28;20553;-72
2022/05/27 04:02:01;;;;;;;16.27;4.20;;;;;;;-145.76;100.00;65039.31;4937738;28;20140;-73
2022/05/27 04:04:28;;;;;;;30.88;4.53;;;;;;;-145.76;100.00;65039.31;4929080;28;20034;-73
2022/05/27 04:06:54;;;;;;;23.20;4.65;;;;;;;-145.76;100.00;65039.31;4963479;28;20176;-72
2022/05/27 04:09:21;;;;;;;26.70;4.55;;;;;;;-145.76;100.00;65039.31;4934136;28;20053;-73
2022/05/27 04:11:47;;;;;;;19.42;4.45;;;;;;;-145.76;100.00;65039.31;4943277;28;20215;-73
2022/05/27 04:14:13;;;;;;;21.15;4.20;;;;;;;-145.76;100.00;65039.31;4932651;28;23796;-72
2022/05/27 04:16:38;;;;;;;21.92;5.03;;;;;;;-145.76;100.00;65039.31;4927748;28;20041;-73
2022/05/27 04:19:04;;;;;;;17.70;4.25;;;;;;;-145.76;100.00;65039.31;4915230;28;20077;-73
2022/05/27 04:21:29;;;;;;;21.55;5.15;;;;;;;-145.76;100.00;65039.31;4947642;28;20228;-73
2022/05/27 04:23:55;;;;;;;19.20;4.03;;;;;;;-145.76;100.00;65039.31;4947995;28;20038;-73
2022/05/27 04:26:21;;;;;;;17.25;4.47;;;;;;;-145.76;100.00;65039.31;4929498;28;20128;-72
2022/05/27 04:28:47;;;;;;;17.80;3.47;;;;;;;-145.76;100.00;65039.31;4945494;28;20113;-73
2022/05/27 04:31:12;;;;;;;26.88;4.78;;;;;;;-145.76;100.00;65039.31;4932152;28;20095;-73
2022/05/27 04:33:38;;;;;;;17.73;4.10;;;;;;;-145.76;100.00;65039.31;4946357;28;20049;-73
2022/05/27 04:36:04;;;;;;;19.17;3.80;;;;;;;-145.76;100.00;65039.31;4931188;28;20038;-72
2022/05/27 04:38:30;;;;;;;22.67;3.60;;;;;;;-145.76;100.00;65039.31;4938174;28;20064;-72
2022/05/27 04:40:55;;;;;;;20.17;3.63;;;;;;;-145.76;100.00;65039.31;4910368;28;20042;-73
2022/05/27 04:43:21;;;;;;;17.55;3.28;;;;;;;-145.76;100.00;65039.31;4942314;28;20050;-73
2022/05/27 04:45:47;;;;;;;24.17;4.25;;;;;;;-145.76;100.00;65039.31;4943548;28;20061;-72
2022/05/27 04:48:13;;;;;;;17.35;3.20;;;;;;;-145.76;100.00;65039.31;4928855;28;20046;-72
2022/05/27 04:50:39;;;;;;;16.15;3.17;;;;;;;-145.76;100.00;65039.31;4946617;28;20076;-72
2022/05/27 04:53:05;;;;;;;16.02;3.67;;;;;;;-145.76;100.00;65039.31;4937981;28;20062;-73
2022/05/27 04:55:33;;;;;;;22.80;3.67;;;;;;;-145.76;100.00;65039.31;4942625;28;20079;-73
2022/05/27 04:58:02;;;;;;;20.38;3.40;;;;;;;-145.76;100.00;65039.31;4929131;28;20046;-72
2022/05/27 05:00:34;;;;;;;18.98;3.42;;;;;;;-145.76;100.00;65039.31;4946424;28;20034;-72
2022/05/27 05:02:59;;;;;;;23.13;4.05;;;;;;;-145.76;100.00;65039.31;4931664;28;20571;-72
2022/05/27 05:05:27;;;;;;;17.77;3.72;;;;;;;-145.76;100.00;65039.31;4925136;28;20084;-72
2022/05/27 05:08:15;;;;;;;22.02;3.40;;;;;;;-145.76;100.00;65039.31;4942916;28;20048;-72
2022/05/27 05:10:41;;;;;;;21.15;3.90;;;;;;;-145.76;100.00;65039.31;4928929;28;20156;-72
2022/05/27 05:13:07;;;;;;;18.55;4.13;;;;;;;-145.76;100.00;65039.31;4944962;28;20103;-72
2022/05/27 05:15:32;;;;;;;22.08;4.55;;;;;;;-145.76;100.00;65039.31;4926256;28;20050;-72
2022/05/27 05:17:58;;;;;;;17.48;3.63;;;;;;;-145.76;100.00;65039.31;4944345;28;20026;-72
2022/05/27 05:20:27;;;;;;;15.23;3.70;;;;;;;-145.76;100.00;65039.31;4928481;28;20038;-73
2022/05/27 05:22:52;;;;;;;13.57;2.63;;;;;;;-145.76;100.00;65039.31;4943392;28;20045;-72
2022/05/27 05:25:18;;;;;;;18.23;3.28;;;;;;;-145.76;100.00;65039.31;4926598;28;20046;-72
2022/05/27 05:27:44;;;;;;;19.00;3.50;;;;;;;-145.76;100.00;65039.31;4959982;28;20029;-72
2022/05/27 05:30:12;;;;;;;16.70;3.35;;;;;;;-145.76;100.00;65039.31;4945960;28;20083;-72
2022/05/27 05:32:39;;;;;;;15.82;3.30;;;;;;;-145.76;100.00;65039.31;4941911;28;20091;-72
2022/05/27 05:35:05;;;;;;;20.08;3.97;;;;;;;-145.76;100.00;65039.31;4944503;28;24055;-72
2022/05/27 05:37:30;;;;;;;21.65;3.88;;;;;;;-145.76;100.00;65039.31;4927978;28;20096;-72
2022/05/27 05:39:56;;;;;;;19.00;3.30;;;;;;;-145.76;100.00;65039.31;4941161;28;20478;-72
2022/05/27 05:42:21;;;;;;;17.20;3.65;;;;;;;-145.76;100.00;65039.31;4929521;28;20084;-72
2022/05/27 05:44:47;;;;;;;17.70;3.50;;;;;;;-145.76;100.00;65039.31;4943535;28;20034;-73
2022/05/27 05:47:14;;;;;;;17.42;4.22;;;;;;;-145.76;100.00;65039.31;4939053;28;20046;-72
2022/05/27 05:49:39;;;;;;;17.15;4.80;;;;;;;-145.76;100.00;65039.31;4929568;28;20049;-73
2022/05/27 05:52:05;;;;;;;24.33;3.58;;;;;;;-145.76;100.00;65039.31;4938653;28;20859;-72
2022/05/27 05:54:30;;;;;;;16.90;4.28;;;;;;;-145.76;100.00;65039.31;4927291;28;20056;-73
2022/05/27 05:57:00;;;;;;;21.23;3.63;;;;;;;-145.76;100.00;65039.31;4946399;28;24070;-72
2022/05/27 05:59:29;;;;;;;23.48;4.57;;;;;;;-145.76;100.00;65039.31;4928810;28;20045;-72
2022/05/27 06:01:54;;;;;;;18.15;3.42;;;;;;;-145.76;100.00;65039.31;4949353;28;20120;-72
2022/05/27 06:04:20;;;;;;;20.27;3.88;;;;;;;-145.76;100.00;65039.31;4922467;28;20054;-71
2022/05/27 06:06:45;;;;;;;23.75;3.97;;;;;;;-145.76;100.00;65039.31;4936223;28;20044;-72
2022/05/27 06:09:11;;;;;;;22.75;3.60;;;;;;;-145.76;100.00;65039.31;4932848;28;20065;-72
2022/05/27 06:11:36;;;;;;;17.35;3.63;;;;;;;-145.76;100.00;65039.31;4921864;28;20030;-72
2022/05/27 06:14:03;;;;;;;24.33;3.95;;;;;;;-145.76;100.00;65039.31;4940866;28;20061;-72
2022/05/27 06:16:28;;;;;;;15.55;3.47;;;;;;;-145.76;100.00;65039.31;4919703;28;20088;-72
2022/05/27 06:18:54;;;;;;;20.83;3.72;;;;;;;-145.76;100.00;65039.31;4943081;28;20029;-72
2022/05/27 06:21:19;;;;;;;20.35;4.20;;;;;;;-145.76;100.00;65039.31;4927358;28;20052;-72
2022/05/27 06:23:45;;;;;;;17.08;3.60;;;;;;;-145.76;100.00;65039.31;4939831;28;20087;-72
2022/05/27 06:26:12;;;;;;;18.20;4.65;;;;;;;-145.76;100.00;65039.31;4927961;28;20072;-72
2022/05/27 06:34:24;;;;;;;16.35;3.78;;;;;;;-145.76;100.00;65039.31;4930284;28;20080;-72
2022/05/27 06:36:56;;;;;;;;;;;;;;;-145.76;100.00;65039.31;4944800;28;20126;-72
2022/05/27 06:39:22;;;;;;;17.58;4.07;;;;;;;-145.76;100.00;65039.31;4925091;28;19933;-72
2022/05/27 06:41:47;;;;;;;15.70;4.40;;;;;;;-145.76;100.00;65039.31;4939165;28;20112;-73
2022/05/27 06:44:13;;;;;;;16.25;4.75;;;;;;;-145.76;100.00;65039.31;4929765;28;20042;-69
2022/05/27 06:46:38;;;;;;;18.67;6.30;;;;;;;-145.76;100.00;65039.31;4928618;28;20086;-72
2022/05/27 06:49:05;;;;;;;15.25;4.20;;;;;;;-145.76;100.00;65039.31;4926190;28;20050;-72
2022/05/27 06:51:31;;;;;;;21.92;5.13;;;;;;;-145.76;100.00;65039.31;4944185;28;20172;-72
2022/05/27 06:53:56;;;;;;;18.60;3.67;;;;;;;-145.76;100.00;65039.31;4929276;28;20123;-72
2022/05/27 06:56:22;;;;;;;23.95;4.07;;;;;;;-145.76;100.00;65039.31;4943838;28;20054;-72
2022/05/27 06:58:47;;;;;;;14.50;3.67;;;;;;;-145.76;100.00;65039.31;4942702;28;20482;-72
2022/05/27 07:01:13;;;;;;;18.70;3.70;;;;;;;-145.76;100.00;65039.31;4930530;28;20062;-72
2022/05/27 07:03:39;;;;;;;17.05;3.15;;;;;;;-145.76;100.00;65039.31;4942595;28;20694;-72
2022/05/27 07:06:09;;;;;;;22.98;3.47;;;;;;;-145.76;100.00;65039.31;4927995;28;20045;-71
2022/05/27 07:08:35;;;;;;;19.30;3.75;;;;;;;-145.76;100.00;65039.31;4945095;28;20038;-72
2022/05/27 07:11:00;;;;;;;19.15;3.47;;;;;;;-145.76;100.00;65039.31;4909144;28;20131;-72
2022/05/27 07:13:27;;;;;;;14.95;3.42;;;;;;;-145.76;100.00;65039.31;4946365;28;20046;-72
2022/05/27 07:15:52;;;;;;;15.32;3.15;;;;;;;-145.76;100.00;65039.31;4934356;28;20103;-72
2022/05/27 07:18:19;;;;;;;18.13;4.28;;;;;;;-145.76;100.00;65039.31;4926779;28;20030;-72
2022/05/27 07:20:44;;;;;;;20.27;3.88;;;;;;;-145.76;100.00;65039.31;4947190;28;20038;-72
2022/05/27 07:23:10;;;;;;;34.83;6.95;;;;;;;-145.76;100.00;65039.31;4930279;28;20064;-72
2022/05/27 07:25:36;;;;;;;26.20;7.25;;;;;;;-145.76;100.00;65039.31;4944118;28;20042;-71
2022/05/27 07:28:08;;;;;;;25.00;7.38;;;;;;;-145.76;100.00;65039.31;4932302;28;20034;-72
2022/05/27 07:30:35;;;;;;;24.10;7.28;;;;;;;-145.76;100.00;65039.31;4947062;28;20038;-72
2022/05/27 07:33:01;;;;;;;13.85;3.55;;;;;;;-145.76;100.00;65039.31;4928397;28;20037;-72
2022/05/27 07:35:26;;;;;;;25.35;6.03;;;;;;;-145.76;100.00;65039.31;4937327;28;20144;-72
2022/05/27 07:37:52;;;;;;;23.98;4.18;;;;;;;-145.76;100.00;65039.31;4939996;28;20081;-72
2022/05/27 07:40:17;;;;;;;21.83;5.75;;;;;;;-145.76;100.00;65039.31;4935762;28;20720;-70
2022/05/27 07:42:43;;;;;;;24.65;4.15;;;;;;;-145.76;100.00;65039.31;4943235;28;20044;-70
2022/05/27 07:45:10;;;;;;;17.67;4.05;;;;;;;-145.76;100.00;65039.31;4930303;28;20056;-70
2022/05/27 07:47:35;;;;;;;17.67;4.28;;;;;;;-145.76;100.00;65039.31;4945679;28;20049;-72
2022/05/27 07:50:01;;;;;;;14.82;3.88;;;;;;;-145.76;100.00;65039.31;4931001;28;20041;-71
2022/05/27 07:52:26;;;;;;;19.20;4.00;;;;;;;-145.76;100.00;65039.31;4947354;28;20065;-73
2022/05/27 07:54:54;;;;;;;17.80;3.08;;;;;;;-145.76;100.00;65039.31;4912564;28;20073;-71
2022/05/27 07:57:25;;;;;;;17.30;4.30;;;;;;;-145.76;100.00;65039.31;4955522;28;20056;-72
2022/05/27 07:59:51;;;;;;;18.50;4.32;;;;;;;-145.76;100.00;65039.31;4952060;28;20041;-72
2022/05/27 08:02:16;;;;;;;22.55;4.68;;;;;;;-145.76;100.00;65039.31;4935685;28;20077;-72
2022/05/27 08:04:42;;;;;;;18.95;3.72;;;;;;;-145.76;100.00;65039.31;4945176;28;20025;-72
2022/05/27 08:07:07;;;;;;;15.07;3.58;;;;;;;-145.76;100.00;65039.31;4929473;28;20045;-73
2022/05/27 08:09:33;;;;;;;14.85;3.63;;;;;;;-145.76;100.00;65039.31;4948321;28;20347;-71
2022/05/27 08:11:58;;;;;;;26.48;8.38;;;;;;;-145.76;100.00;65039.31;4927659;28;21245;-71
2022/05/27 08:14:24;;;;;;;17.88;4.90;;;;;;;-145.76;100.00;65039.31;4942337;28;20123;-72
2022/05/27 08:16:49;;;;;;;20.40;7.03;;;;;;;-145.76;100.00;65039.31;4929206;28;20033;-71
2022/05/27 08:19:15;;;;;;;14.73;5.03;;;;;;;-145.76;100.00;65039.31;4944270;28;20868;-71
2022/05/27 08:21:40;;;;;;;19.88;6.72;;;;;;;-145.76;100.00;65039.31;4946390;28;20466;-72
2022/05/27 08:24:09;;;;;;;13.82;3.47;;;;;;;-145.76;100.00;65039.31;4931265;28;20084;-71
2022/05/27 08:26:34;;;;;;;13.32;3.60;;;;;;;-145.76;100.00;65039.31;4946707;28;20145;-70
2022/05/27 08:29:00;;;;;;;17.63;3.65;;;;;;;-145.76;100.00;65039.31;4931929;28;20382;-73
2022/05/27 08:31:25;;;;;;;15.05;4.93;;;;;;;-145.76;100.00;65039.31;4941685;28;20045;-70
2022/05/27 08:39:19;;;;;;;13.88;4.25;;;;;;;-145.76;100.00;65039.31;4932878;28;23510;-71
2022/05/27 08:41:51;;;;;;;13.38;2.85;;;;;;;-145.76;100.00;65039.31;4940019;28;20038;-71
2022/05/27 08:44:48;;;;;;;15.20;3.20;;;;;;;-145.76;100.00;65039.31;4935123;28;20088;-72
2022/05/27 08:47:41;;;;;;;14.85;4.07;;;;;;;-145.76;100.00;65039.31;4943517;28;20640;-72
2022/05/27 08:50:19;;;;;;;10.15;3.15;;;;;;;-145.76;100.00;65039.31;4925448;28;20403;-72
2022/05/27 08:52:49;;;;;;;16.15;3.08;;;;;;;-145.76;100.00;65039.31;4937627;28;20176;-72
2022/05/27 09:01:08;;;;;;;14.23;3.13;;;;;;;-145.76;100.00;65039.31;4929587;28;20048;-72
2022/05/27 09:03:39;;;;;;;12.13;3.40;;;;;;;-145.76;100.00;65039.31;4938541;28;23005;-72
2022/05/27 09:06:05;;;;;;;15.43;2.70;;;;;;;-145.76;100.00;65039.31;4938048;28;20751;-72
2022/05/27 09:08:31;;;;;;;18.95;4.07;;;;;;;-145.76;100.00;65039.31;4908800;28;20070;-69
2022/05/27 09:10:56;;;;;;;21.15;6.63;;;;;;;-145.76;100.00;65039.31;4939492;28;20034;-71
2022/05/27 09:13:36;;;;;;;10.65;2.55;;;;;;;-145.76;100.00;65039.31;4927211;28;20057;-72
2022/05/27 09:16:20;;;;;;;13.05;3.47;;;;;;;-145.76;100.00;65039.31;4943672;28;20427;-71
2022/05/27 09:18:51;;;;;;;;;;;;;;;-145.76;100.00;65039.31;4926214;28;20046;-72
2022/05/27 09:21:29;;;;;;;14.52;3.75;;;;;;;-145.76;100.00;65039.31;4940845;28;19975;-71
2022/05/27 09:23:57;;;;;;;17.45;3.25;;;;;;;-145.76;100.00;65039.31;4923451;28;20049;-71
2022/05/27 09:26:40;;;;;;;17.02;3.80;;;;;;;-145.76;100.00;65039.31;4949812;28;20049;-72
2022/05/27 09:29:05;;;;;;;;;;;;;;;-145.76;100.00;65039.31;4927854;28;20042;-76
2022/05/27 09:31:36;;;;;;;19.02;3.67;;;;;;;-145.76;100.00;65039.31;4940681;28;19923;-71
2022/05/27 09:34:02;;;;;;;25.58;4.13;;;;;;;-145.76;100.00;65039.31;4938326;28;20192;-72
2022/05/27 09:36:34;;;;;;;14.18;2.75;;;;;;;-145.76;100.00;65039.31;4935834;28;20033;-70
2022/05/27 09:39:02;;;;;;;13.85;3.38;;;;;;;-145.76;100.00;65039.31;4944571;28;20034;-71
2022/05/27 09:41:46;;;;;;;17.33;3.65;;;;;;;-145.76;100.00;65039.31;4924362;28;20045;-71
2022/05/27 09:44:17;;;;;;;11.77;2.80;;;;;;;-145.76;100.00;65039.31;4941548;28;20038;-70
2022/05/27 09:46:42;;;;;;;11.82;3.40;;;;;;;-145.76;100.00;65039.31;4936614;28;20148;-71
2022/05/27 09:49:08;;;;;;;19.88;5.30;;;;;;;-145.76;100.00;65039.31;4944827;28;20496;-70
2022/05/27 09:51:33;;;;;;;15.75;3.90;;;;;;;-145.76;100.00;65039.31;4928702;28;20159;-72
2022/05/27 09:54:34;;;;;;;18.25;3.50;;;;;;;-145.76;100.00;65039.31;4945297;28;20046;-72
2022/05/27 09:57:14;;;;;;;15.88;3.90;;;;;;;-145.76;100.00;65039.31;4927910;28;20157;-71
2022/05/27 09:59:42;;;;;;;19.30;3.97;;;;;;;-145.76;100.00;65039.31;4943966;28;20103;-72
2022/05/27 10:02:26;;;;;;;14.77;3.33;;;;;;;-145.76;100.00;65039.31;4928878;28;20129;-72
2022/05/27 10:04:57;;;;;;;13.95;3.55;;;;;;;-145.76;100.00;65039.31;4944301;28;20128;-70
2022/05/27 10:07:25;;;;;;;21.30;4.65;;;;;;;-145.76;100.00;65039.31;4922068;28;20084;-71
2022/05/27 10:09:50;;;;;;;17.88;5.20;;;;;;;-145.76;100.00;65039.31;4943400;28;20071;-71
2022/05/27 10:12:30;;;;;;;15.38;3.97;;;;;;;-145.76;100.00;65039.31;4943752;28;20033;-72
2022/05/27 10:14:56;;;;;;;14.65;2.65;;;;;;;-145.76;100.00;65039.31;4929111;28;20048;-72
2022/05/27 10:17:36;;;;;;;10.07;2.53;;;;;;;-145.76;100.00;65039.31;4943855;28;20038;-70
2022/05/27 10:20:22;;;;;;;13.13;3.25;;;;;;;-145.76;100.00;65039.31;4922997;28;20136;-70
2022/05/27 10:23:04;;;;;;;17.05;4.07;;;;;;;-145.76;100.00;65039.31;4944262;28;20125;-72
2022/05/27 10:25:36;;;;;;;10.80;3.00;;;;;;;-145.76;100.00;65039.31;4924424;28;25510;-70
2022/05/27 10:28:03;;;;;;;10.68;2.97;;;;;;;-145.76;100.00;65039.31;4932540;28;20088;-70
2022/05/27 10:30:33;;;;;;;14.82;3.72;;;;;;;-145.76;100.00;65039.31;4928065;28;25643;-72
2022/05/27 10:33:19;;;;;;;21.08;4.25;;;;;;;-145.76;100.00;65039.31;4943556;28;20037;-71
2022/05/27 10:35:46;;;;;;;13.98;3.90;;;;;;;-145.76;100.00;65039.31;4923761;28;23958;-71
2022/05/27 10:38:36;;;;;;;13.18;3.08;;;;;;;-145.76;100.00;65039.31;4943597;28;20034;-71
2022/05/27 10:41:11;;;;;;;14.95;3.28;;;;;;;-145.76;100.00;65039.31;4930905;28;20576;-69
2022/05/27 10:43:45;;;;;;;15.18;3.13;;;;;;;-145.76;100.00;65039.31;4934761;28;20045;-70
2022/05/27 10:46:15;;;;;;;17.17;3.78;;;;;;;-145.76;100.00;65039.31;4930449;28;20045;-70
2022/05/27 10:49:32;;;;;;;13.73;3.33;;;;;;;-145.76;100.00;65039.31;4941831;28;20171;-70
2022/05/27 10:52:05;;;;;;;17.00;3.35;;;;;;;-145.76;100.00;65039.31;4924062;28;20115;-70
2022/05/27 10:54:54;;;;;;;17.58;4.15;;;;;;;-145.76;100.00;65039.31;4948206;28;20140;-70
2022/05/27 11:03:43;;;;;;;13.93;3.30;;;;;;;-145.76;100.00;65039.31;4927942;28;20046;-71
2022/05/27 11:06:44;;;;;;;12.77;3.83;;;;;;;-145.76;100.00;65039.31;4947736;28;20061;-70
2022/05/27 11:09:27;;;;;;;15.85;3.70;;;;;;;-145.76;100.00;65039.31;4921614;28;20041;-70
2022/05/27 11:12:01;;;;;;;16.73;3.92;;;;;;;-145.76;100.00;65039.31;4946023;28;20034;-70
2022/05/27 11:18:10;;;;;;;17.75;4.30;;;;;;;-145.76;100.00;65039.31;4946899;28;20057;-71
2022/05/27 11:20:58;;;;;;;16.35;4.18;;;;;;;-145.76;100.00;65039.31;4932513;28;20050;-71
2022/05/27 11:23:46;;;;;;;22.38;4.72;;;;;;;-145.76;100.00;65039.31;4946467;28;20046;-71
2022/05/27 11:26:15;;;;;;;19.08;4.32;;;;;;;-145.76;100.00;65039.31;4930086;28;20073;-70
2022/05/27 11:28:59;;;;;;;23.00;4.50;;;;;;;-145.76;100.00;65039.31;4943065;28;20044;-71
2022/05/27 11:31:41;;;;;;;;;;;;;;;-145.76;100.00;65039.31;4933466;28;24890;-69
2022/05/27 11:34:32;;;;;;;19.70;3.38;;;;;;;-145.76;100.00;65039.31;4927895;28;19928;-73
2022/05/27 11:37:19;;;;;;;18.40;4.47;;;;;;;-145.76;100.00;65039.31;4929707;28;20045;-72
2022/05/27 11:39:55;;;;;;;17.00;4.18;;;;;;;-145.76;100.00;65039.31;4946385;28;20038;-72
2022/05/27 11:42:20;;;;;;;18.02;4.40;;;;;;;-145.76;100.00;65039.31;4931645;28;20204;-72
2022/05/27 11:45:27;;;;;;;20.58;5.00;;;;;;;-145.76;100.00;65039.31;4946945;28;20485;-72
2022/05/27 11:47:59;;;;;;;12.88;4.13;;;;;;;-145.76;100.00;65039.31;4925755;28;20052;-70
2022/05/27 11:50:33;;;;;;;20.40;3.33;;;;;;;-145.76;100.00;65039.31;4946090;28;20030;-70